Time;durP1;ratioP1;P1;durP2;ratioP2;P2;SDS_P1;SDS_P2;PMS_P1;PMS_P2;Temp;Humidity;BMP_temperature;BMP_pressure;BME280_temperature;BME280_humidity;BME280_pressure;Samples;Min_cycle;Max_cycle;Signal;HPM_P1;HPM_P2
2022/10/25 00:01:33;;;;;;;25.63;9.85;;;;;;;12.64;72.15;99252.34;5238640;28;20044;-72
2022/10/25 00:04:24;;;;;;;10.88;4.18;;;;;;;12.53;72.61;99249.09;5223344;28;20147;-71
2022/10/25 00:07:14;;;;;;;5.20;1.85;;;;;;;12.42;72.22;99234.19;5224377;28;20475;-72
2022/10/25 00:10:05;;;;;;;2.08;1.00;;;;;;;12.49;71.48;99250.38;5224632;28;20412;-73
2022/10/25 00:12:55;;;;;;;4.30;1.00;;;;;;;12.41;72.04;99253.75;5224281;28;20767;-72
2022/10/25 00:15:45;;;;;;;3.17;1.50;;;;;;;12.41;72.01;99254.59;5242761;28;20063;-75
2022/10/25 00:18:35;;;;;;;1.52;1.20;;;;;;;12.44;71.75;99253.47;5213744;28;20624;-73
2022/10/25 00:21:25;;;;;;;4.05;1.10;;;;;;;12.15;72.15;99230.56;5223844;28;20045;-74
2022/10/25 00:24:15;;;;;;;1.75;1.27;;;;;;;12.14;72.08;99236.84;5224719;28;20063;-73
2022/10/25 00:27:05;;;;;;;1.38;1.10;;;;;;;12.14;71.34;99255.44;5224375;28;20067;-73
2022/10/25 00:29:55;;;;;;;1.33;0.80;;;;;;;12.17;72.38;99249.00;5237045;28;20060;-74
2022/10/25 00:32:45;;;;;;;3.60;1.25;;;;;;;12.32;72.83;99255.50;5236609;28;20072;-72
2022/10/25 00:35:36;;;;;;;3.30;1.10;;;;;;;12.31;73.18;99250.31;5224854;28;20057;-75
2022/10/25 00:38:26;;;;;;;2.45;1.05;;;;;;;12.35;73.10;99238.41;5208944;28;20059;-73
2022/10/25 00:41:21;;;;;;;4.78;1.17;;;;;;;12.42;72.81;99252.78;5223565;28;20114;-72
2022/10/25 00:44:39;;;;;;;1.20;0.93;;;;;;;12.45;73.29;99253.34;5235441;28;20048;-72
2022/10/25 00:47:50;;;;;;;3.10;1.30;;;;;;;12.47;73.35;99253.16;5208543;28;20415;-72
2022/10/25 00:50:49;;;;;;;3.05;1.27;;;;;;;12.42;74.12;99258.94;5223647;28;20122;-73
2022/10/25 00:53:41;;;;;;;1.73;1.30;;;;;;;12.50;73.91;99263.50;5223497;28;20101;-72
2022/10/25 00:56:35;;;;;;;5.15;1.48;;;;;;;12.40;73.18;99225.50;5227780;28;20091;-74
2022/10/25 00:59:27;;;;;;;5.65;1.25;;;;;;;12.36;73.29;99245.41;5233308;28;20056;-72
2022/10/25 01:02:20;;;;;;;2.72;1.23;;;;;;;12.41;72.47;99261.75;5235413;28;20045;-74
2022/10/25 01:05:11;;;;;;;3.15;1.30;;;;;;;12.37;72.71;99258.53;5217555;28;20067;-73
2022/10/25 01:08:02;;;;;;;6.13;2.58;;;;;;;12.33;72.21;99261.66;5222739;28;20903;-73
2022/10/25 01:10:52;;;;;;;19.55;8.00;;;;;;;12.24;72.58;99252.75;5222790;28;20053;-72
2022/10/25 01:13:42;;;;;;;9.68;3.55;;;;;;;12.24;72.36;99263.38;5234033;28;20109;-71
2022/10/25 01:16:41;;;;;;;4.15;1.75;;;;;;;12.14;72.13;99263.41;5237072;28;20079;-72
2022/10/25 01:19:50;;;;;;;3.08;1.30;;;;;;;11.97;72.23;99257.06;5222179;28;20059;-73
2022/10/25 01:23:08;;;;;;;1.75;1.17;;;;;;;11.95;72.02;99258.19;5207855;28;20133;-75
2022/10/25 01:26:16;;;;;;;2.45;1.33;;;;;;;11.87;72.12;99258.09;5215763;28;20049;-72
2022/10/25 01:29:31;;;;;;;2.50;0.95;;;;;;;11.88;72.17;99257.09;5235278;28;20123;-72
2022/10/25 01:32:36;;;;;;;;;;;;;;;11.85;72.35;99252.91;5230302;28;20530;-74
2022/10/25 01:35:41;;;;;;;1.60;1.08;;;;;;;11.84;71.55;99245.06;5221056;28;19927;-73
2022/10/25 01:39:17;;;;;;;1.58;1.00;;;;;;;11.61;72.37;99244.56;5211443;28;20051;-73
2022/10/25 01:42:19;;;;;;;2.30;1.00;;;;;;;11.64;72.51;99252.25;5227603;28;20064;-73
2022/10/25 01:45:53;;;;;;;3.05;1.40;;;;;;;11.66;72.29;99253.78;5214634;28;20135;-72
2022/10/25 01:48:57;;;;;;;7.63;3.08;;;;;;;11.57;72.40;99253.81;5217118;28;20525;-73
2022/10/25 01:51:47;;;;;;;;;;;;;;;11.62;71.93;99249.75;5222956;28;20453;-72
2022/10/25 01:54:37;;;;;;;4.68;1.90;;;;;;;11.47;72.84;99253.84;5221150;28;19943;-72
2022/10/25 01:57:36;;;;;;;1.75;1.20;;;;;;;11.61;72.20;99257.84;5232845;28;20097;-72
2022/10/25 02:00:33;;;;;;;2.65;1.10;;;;;;;11.53;72.71;99247.97;5227953;28;20072;-73
2022/10/25 02:03:47;;;;;;;1.30;1.20;;;;;;;11.66;72.97;99255.63;5222846;28;20044;-72
2022/10/25 02:06:56;;;;;;;2.63;1.13;;;;;;;11.52;72.72;99256.88;5239862;23;20055;-71
2022/10/25 02:09:59;;;;;;;3.55;1.30;;;;;;;11.69;72.62;99253.50;5258934;28;20059;-71
2022/10/25 02:13:15;;;;;;;5.47;1.35;;;;;;;11.73;72.03;99249.56;5239498;28;20509;-71
2022/10/25 02:16:12;;;;;;;7.95;2.03;;;;;;;11.50;73.17;99251.75;5239392;28;20174;-72
2022/10/25 02:19:05;;;;;;;3.85;2.40;;;;;;;11.37;72.96;99240.59;5226385;28;20113;-71
2022/10/25 02:21:56;;;;;;;4.37;1.60;;;;;;;11.43;72.99;99228.56;5232593;28;20060;-70
2022/10/25 02:24:49;;;;;;;13.10;6.05;;;;;;;11.45;72.64;99253.97;5243633;28;20053;-70
2022/10/25 02:27:40;;;;;;;14.82;6.63;;;;;;;11.23;72.29;99239.22;5242964;28;20048;-70
2022/10/25 02:30:32;;;;;;;11.68;5.18;;;;;;;11.22;73.51;99245.47;5256655;28;20044;-72
2022/10/25 02:33:23;;;;;;;7.50;3.22;;;;;;;11.29;73.18;99246.63;5247378;28;20119;-70
2022/10/25 02:36:22;;;;;;;2.88;1.88;;;;;;;11.24;72.68;99248.84;5245107;28;20132;-71
2022/10/25 02:39:13;;;;;;;2.85;1.60;;;;;;;11.28;73.27;99247.56;5246788;28;20055;-71
2022/10/25 02:42:03;;;;;;;4.55;1.70;;;;;;;11.20;72.85;99239.50;5246214;28;20674;-71
2022/10/25 02:44:53;;;;;;;4.47;1.48;;;;;;;11.35;72.82;99245.19;5231901;28;20127;-71
2022/10/25 02:47:43;;;;;;;4.10;1.63;;;;;;;11.35;72.69;99247.00;5243296;28;20055;-71
2022/10/25 02:50:34;;;;;;;3.50;1.67;;;;;;;11.43;73.98;99237.38;5249238;28;20052;-71
2022/10/25 02:53:24;;;;;;;4.15;1.75;;;;;;;11.48;73.57;99229.78;5247105;28;20045;-70
2022/10/25 02:56:18;;;;;;;3.83;1.58;;;;;;;11.34;72.79;99242.69;5246252;28;20049;-71
2022/10/25 02:59:10;;;;;;;3.05;1.83;;;;;;;11.37;72.56;99253.03;5245793;28;20141;-69
2022/10/25 03:02:00;;;;;;;1.85;1.55;;;;;;;11.33;73.29;99249.81;5236139;28;20056;-71
2022/10/25 03:04:51;;;;;;;3.65;1.50;;;;;;;11.35;72.87;99247.00;5231481;28;20087;-71
2022/10/25 03:07:41;;;;;;;3.15;1.55;;;;;;;11.15;72.85;99243.53;5215163;28;20108;-71
2022/10/25 03:10:31;;;;;;;3.72;1.70;;;;;;;11.14;72.61;99241.88;5246359;28;20104;-71
2022/10/25 03:13:21;;;;;;;4.18;1.35;;;;;;;11.11;73.01;99240.34;5242774;28;20106;-71
2022/10/25 03:16:11;;;;;;;3.17;1.50;;;;;;;11.09;72.88;99233.50;5243688;28;20075;-71
2022/10/25 03:19:01;;;;;;;3.95;1.85;;;;;;;11.11;72.98;99223.59;5245593;28;20147;-70
2022/10/25 03:21:51;;;;;;;3.30;1.48;;;;;;;11.16;72.57;99232.81;5246123;28;20139;-71
2022/10/25 03:24:40;;;;;;;2.92;1.83;;;;;;;11.11;72.19;99242.16;5247058;28;20052;-69
2022/10/25 03:27:30;;;;;;;7.07;2.08;;;;;;;10.98;73.21;99242.44;5253289;28;20520;-69
2022/10/25 03:30:21;;;;;;;4.40;1.65;;;;;;;11.01;72.25;99252.78;5230503;28;20048;-70
2022/10/25 03:33:11;;;;;;;2.08;1.70;;;;;;;10.86;72.93;99248.84;5226126;28;20049;-71
2022/10/25 03:36:02;;;;;;;2.22;1.52;;;;;;;10.87;72.88;99251.38;5237689;28;20051;-71
2022/10/25 03:38:52;;;;;;;4.07;1.60;;;;;;;10.95;72.77;99253.34;5245068;28;20059;-71
2022/10/25 03:41:42;;;;;;;3.22;1.65;;;;;;;11.03;72.79;99253.50;5243523;28;20699;-71
2022/10/25 03:44:32;;;;;;;3.80;1.50;;;;;;;10.97;72.07;99251.38;5245830;28;20109;-72
2022/10/25 03:47:22;;;;;;;7.45;3.17;;;;;;;10.91;73.25;99267.88;5238403;28;20498;-71
2022/10/25 03:50:13;;;;;;;5.68;2.05;;;;;;;10.80;73.13;99261.72;5243739;28;20578;-72
2022/10/25 03:53:06;;;;;;;3.63;1.80;;;;;;;10.77;73.31;99262.00;5245268;28;20125;-72
2022/10/25 03:56:01;;;;;;;6.35;2.13;;;;;;;10.94;74.19;99263.13;5246859;28;20134;-74
2022/10/25 03:58:52;;;;;;;3.15;1.92;;;;;;;10.94;73.49;99263.13;5229911;28;20060;-72
2022/10/25 04:01:42;;;;;;;6.10;2.25;;;;;;;10.92;73.63;99267.72;5230149;28;20052;-72
2022/10/25 04:04:32;;;;;;;6.63;2.00;;;;;;;10.76;72.26;99251.50;5242240;28;20044;-73
2022/10/25 04:07:22;;;;;;;4.13;2.42;;;;;;;10.74;72.99;99272.88;5239665;28;20048;-72
2022/10/25 04:10:13;;;;;;;6.40;2.30;;;;;;;10.58;72.99;99262.78;5253662;28;20723;-73
2022/10/25 04:13:03;;;;;;;10.13;2.50;;;;;;;10.74;73.06;99275.53;5230091;28;20052;-73
2022/10/25 04:15:53;;;;;;;5.80;2.00;;;;;;;10.70;72.86;99274.13;5229220;28;20174;-73
2022/10/25 04:18:43;;;;;;;3.05;1.83;;;;;;;10.62;73.63;99255.41;5245078;28;20122;-73
2022/10/25 04:21:33;;;;;;;10.57;2.38;;;;;;;10.68;72.99;99257.50;5241112;28;20064;-72
2022/10/25 04:24:23;;;;;;;3.25;1.63;;;;;;;10.65;73.26;99257.78;5233230;28;20045;-71
2022/10/25 04:27:13;;;;;;;6.40;2.05;;;;;;;10.44;73.47;99225.25;5244956;28;20051;-72
2022/10/25 04:30:03;;;;;;;5.43;2.55;;;;;;;10.76;74.46;99255.03;5224693;28;20087;-73
2022/10/25 04:32:56;;;;;;;3.70;2.70;;;;;;;10.80;76.29;99266.19;5236747;28;20068;-75
2022/10/25 04:35:56;;;;;;;11.43;3.22;;;;;;;10.84;74.79;99266.75;5226245;28;20185;-74
2022/10/25 04:38:47;;;;;;;7.03;3.47;;;;;;;10.92;75.20;99269.53;5230660;28;20181;-73
2022/10/25 04:41:38;;;;;;;7.25;2.67;;;;;;;10.93;74.65;99274.72;5242222;28;20529;-75
2022/10/25 04:44:28;;;;;;;7.10;2.92;;;;;;;10.94;73.88;99286.16;5240093;28;20094;-75
2022/10/25 04:47:18;;;;;;;3.97;2.50;;;;;;;10.86;73.60;99278.91;5226691;28;20060;-73
2022/10/25 04:50:08;;;;;;;6.38;2.60;;;;;;;10.84;74.02;99274.69;5246499;28;20056;-71
2022/10/25 04:52:58;;;;;;;3.80;2.72;;;;;;;10.80;73.36;99280.28;5227719;28;20045;-72
2022/10/25 04:56:03;;;;;;;10.68;5.28;;;;;;;10.61;73.42;99261.69;5242185;28;20045;-74
2022/10/25 04:58:53;;;;;;;14.30;5.93;;;;;;;10.63;73.01;99275.66;5223903;28;20487;-73
2022/10/25 05:01:43;;;;;;;10.15;5.35;;;;;;;10.63;73.91;99280.97;5251275;28;20093;-72
2022/10/25 05:04:33;;;;;;;12.38;5.05;;;;;;;10.67;73.07;99285.00;5227819;28;20181;-71
2022/10/25 05:07:23;;;;;;;8.90;4.57;;;;;;;10.68;73.64;99288.50;5244190;28;20059;-71
2022/10/25 05:10:13;;;;;;;11.35;5.00;;;;;;;10.73;73.91;99294.25;5243769;28;20060;-71
2022/10/25 05:13:03;;;;;;;7.60;2.72;;;;;;;10.70;73.19;99282.09;5243779;28;20513;-72
2022/10/25 05:15:56;;;;;;;4.15;2.42;;;;;;;10.88;73.50;99299.97;5243481;28;20090;-72
2022/10/25 05:18:47;;;;;;;6.20;2.37;;;;;;;10.74;73.13;99294.09;5214127;28;20637;-72
2022/10/25 05:21:37;;;;;;;3.65;2.30;;;;;;;10.68;73.05;99299.94;5221051;28;20048;-71
2022/10/25 05:24:27;;;;;;;4.97;2.10;;;;;;;10.57;73.57;99297.41;5233941;28;20518;-71
2022/10/25 05:27:17;;;;;;;5.50;2.05;;;;;;;10.43;72.75;99288.03;5242372;28;20059;-71
2022/10/25 05:30:09;;;;;;;4.97;2.00;;;;;;;10.42;73.33;99285.50;5224022;28;20052;-72
2022/10/25 05:32:59;;;;;;;3.75;1.92;;;;;;;10.18;72.62;99262.81;5242486;28;20083;-72
2022/10/25 05:35:54;;;;;;;6.72;2.00;;;;;;;10.31;72.90;99297.06;5242442;28;20110;-71
2022/10/25 05:38:44;;;;;;;2.72;1.90;;;;;;;10.33;72.45;99301.25;5246235;28;20522;-72
2022/10/25 05:41:34;;;;;;;4.18;2.28;;;;;;;10.26;72.60;99301.91;5243009;28;20052;-72
2022/10/25 05:44:26;;;;;;;3.97;2.70;;;;;;;10.36;74.10;99310.72;5240105;28;20045;-71
2022/10/25 05:47:16;;;;;;;4.57;2.03;;;;;;;10.46;72.59;99290.44;5243714;28;20302;-72
2022/10/25 05:50:06;;;;;;;4.95;2.10;;;;;;;10.32;72.98;99296.09;5244154;28;20056;-71
2022/10/25 05:52:56;;;;;;;5.07;2.05;;;;;;;10.25;73.70;99308.16;5242327;28;20063;-71
2022/10/25 05:55:46;;;;;;;5.00;2.22;;;;;;;10.17;73.36;99311.50;5223204;28;20056;-72
2022/10/25 05:58:36;;;;;;;4.22;2.35;;;;;;;10.26;73.02;99317.81;5222697;28;20064;-72
2022/10/25 06:01:26;;;;;;;7.82;2.78;;;;;;;10.40;72.85;99320.13;5233320;28;20548;-71
2022/10/25 06:04:17;;;;;;;5.18;2.53;;;;;;;10.21;72.11;99322.66;5227986;28;20044;-71
2022/10/25 06:07:07;;;;;;;7.85;2.10;;;;;;;10.04;73.44;99322.31;5228375;28;20049;-72
2022/10/25 06:09:57;;;;;;;4.75;2.38;;;;;;;10.06;73.72;99320.34;5228479;28;20049;-71
2022/10/25 06:12:50;;;;;;;4.65;2.25;;;;;;;10.11;73.41;99338.50;5228729;28;20528;-72
2022/10/25 06:15:40;;;;;;;5.97;2.40;;;;;;;10.12;73.83;99341.03;5213736;28;20422;-70
2022/10/25 06:18:31;;;;;;;6.60;2.47;;;;;;;10.19;73.80;99349.28;5243575;28;20094;-70
2022/10/25 06:21:23;;;;;;;5.72;3.00;;;;;;;10.31;73.72;99348.25;5243603;28;20059;-70
2022/10/25 06:24:13;;;;;;;8.40;4.65;;;;;;;10.35;73.46;99340.88;5228679;28;20048;-70
2022/10/25 06:27:03;;;;;;;6.32;3.85;;;;;;;10.36;73.92;99350.50;5243709;28;20603;-71
2022/10/25 06:29:53;;;;;;;10.02;3.60;;;;;;;10.42;73.72;99351.78;5243653;28;20055;-71
2022/10/25 06:32:43;;;;;;;7.38;3.53;;;;;;;10.39;73.36;99347.56;5244141;28;20103;-71
2022/10/25 06:35:33;;;;;;;5.15;3.20;;;;;;;10.41;74.09;99366.03;5229223;28;20079;-71
2022/10/25 06:38:25;;;;;;;6.57;3.90;;;;;;;10.38;73.97;99350.38;5228594;28;20510;-71
2022/10/25 06:41:24;;;;;;;6.07;3.67;;;;;;;10.43;73.68;99366.72;5243485;28;20177;-71
2022/10/25 06:44:14;;;;;;;7.45;3.55;;;;;;;10.53;73.20;99380.88;5228629;28;20052;-71
2022/10/25 06:47:04;;;;;;;7.63;4.38;;;;;;;10.57;73.22;99371.66;5243266;28;20084;-71
2022/10/25 06:50:07;;;;;;;8.55;4.40;;;;;;;10.78;74.08;99385.66;5243794;28;20088;-71
2022/10/25 06:53:01;;;;;;;17.33;4.15;;;;;;;10.85;74.20;99379.81;5228997;28;20465;-71
2022/10/25 06:55:51;;;;;;;8.27;4.30;;;;;;;11.31;75.73;99391.63;5243053;28;20049;-71
2022/10/25 06:58:41;;;;;;;10.30;4.90;;;;;;;11.63;75.73;99391.38;5243220;28;20510;-71
2022/10/25 07:01:31;;;;;;;12.80;5.07;;;;;;;11.75;75.05;99403.50;5230413;28;20053;-71
2022/10/25 07:04:22;;;;;;;13.90;5.97;;;;;;;11.81;75.30;99379.03;5207839;28;20274;-71
2022/10/25 07:07:13;;;;;;;10.30;5.78;;;;;;;11.96;75.30;99382.13;5207273;28;20056;-71
2022/10/25 07:10:04;;;;;;;12.70;5.90;;;;;;;12.15;75.14;99392.72;5226934;28;20510;-71
2022/10/25 07:12:54;;;;;;;16.77;6.43;;;;;;;12.67;74.53;99393.06;5228049;28;20075;-71
2022/10/25 07:15:44;;;;;;;16.10;6.40;;;;;;;13.07;73.48;99407.00;5243084;28;20121;-71
2022/10/25 07:18:35;;;;;;;14.88;6.43;;;;;;;13.12;72.96;99405.56;5231162;28;20060;-71
2022/10/25 07:21:25;;;;;;;16.17;6.63;;;;;;;13.03;73.37;99401.13;5217524;28;20121;-71
2022/10/25 07:24:16;;;;;;;9.75;5.55;;;;;;;13.00;73.91;99404.09;5246131;28;20057;-71
2022/10/25 07:27:07;;;;;;;10.55;4.95;;;;;;;13.11;73.60;99401.22;5247188;28;20056;-71
2022/10/25 07:29:57;;;;;;;10.30;5.20;;;;;;;13.03;73.58;99406.44;5217759;28;20045;-71
2022/10/25 07:32:48;;;;;;;12.98;5.25;;;;;;;13.25;72.66;99407.06;5235746;28;20132;-72
2022/10/25 07:35:38;;;;;;;9.57;5.32;;;;;;;13.78;71.82;99412.38;5246083;28;20041;-71
2022/10/25 07:38:48;;;;;;;12.18;4.90;;;;;;;14.74;71.28;99400.84;5246287;28;20084;-72
2022/10/25 07:41:38;;;;;;;12.93;5.40;;;;;;;15.71;68.43;99386.88;5246092;28;20562;-71
2022/10/25 07:44:28;;;;;;;19.85;4.75;;;;;;;16.77;66.30;99415.28;5246566;28;20103;-72
2022/10/25 07:47:17;;;;;;;8.07;4.60;;;;;;;16.94;65.75;99402.66;5230303;28;20062;-70
2022/10/25 07:50:08;;;;;;;6.50;4.03;;;;;;;17.48;63.18;99410.75;5230803;28;20545;-70
2022/10/25 07:52:58;;;;;;;7.65;2.95;;;;;;;18.28;60.97;99402.22;5246216;28;20103;-71
2022/10/25 07:55:50;;;;;;;7.45;2.67;;;;;;;18.02;61.17;99404.47;5245834;28;20044;-71
2022/10/25 07:58:40;;;;;;;7.75;2.65;;;;;;;18.64;59.52;99412.22;5246293;28;20060;-71
2022/10/25 08:01:30;;;;;;;9.20;2.20;;;;;;;18.78;59.47;99406.03;5241598;28;20045;-71
2022/10/25 08:04:20;;;;;;;5.20;2.40;;;;;;;19.13;58.36;99402.72;5210461;28;20661;-71
2022/10/25 08:07:11;;;;;;;3.45;1.98;;;;;;;19.18;58.90;99395.78;5210745;28;20071;-71
2022/10/25 08:10:01;;;;;;;8.63;2.65;;;;;;;19.77;57.01;99413.59;5240285;28;20045;-71
2022/10/25 08:12:54;;;;;;;6.32;2.38;;;;;;;20.15;55.01;99414.09;5245606;28;20056;-70
2022/10/25 08:15:51;;;;;;;5.88;2.47;;;;;;;20.19;55.32;99401.91;5240385;28;20045;-71
2022/10/25 08:18:42;;;;;;;5.85;1.80;;;;;;;20.49;55.26;99417.03;5224712;28;20080;-71
2022/10/25 08:21:32;;;;;;;4.68;1.77;;;;;;;20.80;53.99;99408.53;5227571;28;20067;-71
2022/10/25 08:24:22;;;;;;;3.25;2.00;;;;;;;20.98;53.54;99403.44;5225283;28;20052;-72
2022/10/25 08:27:13;;;;;;;5.18;2.00;;;;;;;21.06;52.82;99410.53;5224959;28;20107;-72
2022/10/25 08:30:03;;;;;;;7.28;2.30;;;;;;;21.64;52.78;99413.59;5224702;28;20108;-72
2022/10/25 08:32:53;;;;;;;6.38;2.35;;;;;;;21.84;52.40;99416.31;5225202;28;20083;-72
2022/10/25 08:35:47;;;;;;;5.25;2.00;;;;;;;21.86;52.73;99416.97;5224645;28;20049;-72
2022/10/25 08:38:37;;;;;;;6.10;1.92;;;;;;;21.86;52.18;99408.88;5240706;28;20243;-72
2022/10/25 08:41:34;;;;;;;5.40;2.30;;;;;;;22.32;52.99;99413.47;5229791;28;20059;-72
2022/10/25 08:44:44;;;;;;;9.77;2.70;;;;;;;22.37;52.30;99420.91;5245337;28;20052;-72
2022/10/25 08:47:43;;;;;;;5.85;2.00;;;;;;;22.39;50.86;99411.56;5244611;28;20044;-71
2022/10/25 08:50:43;;;;;;;7.85;2.40;;;;;;;22.78;50.17;99422.50;5245121;28;20059;-71
2022/10/25 08:53:40;;;;;;;4.45;1.88;;;;;;;22.88;49.29;99412.91;5245114;28;20131;-71
2022/10/25 08:56:31;;;;;;;12.05;1.65;;;;;;;23.11;49.33;99417.84;5229388;28;20052;-71
2022/10/25 08:59:28;;;;;;;8.50;1.90;;;;;;;23.27;49.32;99410.25;5244730;28;20074;-71
2022/10/25 09:02:39;;;;;;;5.57;2.13;;;;;;;23.15;50.45;99415.53;5244364;28;20056;-71
2022/10/25 09:05:40;;;;;;;6.43;1.88;;;;;;;23.24;50.79;99424.22;5244536;28;20045;-71
2022/10/25 09:08:54;;;;;;;9.52;2.00;;;;;;;23.72;49.37;99413.78;5244209;28;20059;-71
2022/10/25 09:12:04;;;;;;;9.15;1.88;;;;;;;23.42;48.53;99424.34;5229289;28;20048;-71
2022/10/25 09:15:22;;;;;;;8.50;1.83;;;;;;;23.56;48.47;99419.69;5244312;28;20060;-71
2022/10/25 09:18:16;;;;;;;5.85;1.83;;;;;;;23.45;48.08;99426.63;5223320;28;20162;-71
2022/10/25 09:21:14;;;;;;;6.47;1.65;;;;;;;23.16;47.62;99417.19;5223328;28;20096;-71
2022/10/25 09:24:35;;;;;;;10.38;1.83;;;;;;;23.47;46.91;99421.81;5209649;28;20414;-71
2022/10/25 09:27:25;;;;;;;10.70;1.58;;;;;;;23.07;49.73;99423.88;5223594;28;20049;-71
2022/10/25 09:30:16;;;;;;;9.35;2.05;;;;;;;23.33;48.63;99415.63;5208208;28;20521;-71
2022/10/25 09:33:15;;;;;;;6.22;1.77;;;;;;;23.51;48.56;99414.94;5223447;28;20065;-71
2022/10/25 09:36:11;;;;;;;;;;;;;;;23.71;49.50;99416.69;5224037;28;20052;-71
2022/10/25 09:39:10;;;;;;;4.65;1.38;;;;;;;23.59;48.81;99419.25;5238986;28;20386;-71
2022/10/25 09:42:15;;;;;;;8.80;1.60;;;;;;;23.33;49.48;99410.22;5223782;28;20060;-71
2022/10/25 09:45:13;;;;;;;4.38;1.50;;;;;;;23.53;49.84;99418.22;5223858;28;20057;-71
2022/10/25 09:48:24;;;;;;;5.22;1.77;;;;;;;23.44;48.30;99420.38;5228898;28;20514;-71
2022/10/25 09:51:49;;;;;;;6.88;1.60;;;;;;;23.54;49.04;99419.91;5243995;28;20059;-71
2022/10/25 09:55:00;;;;;;;3.77;1.63;;;;;;;23.07;50.04;99411.19;5244375;28;20463;-71
2022/10/25 09:57:50;;;;;;;3.60;1.88;;;;;;;22.38;50.68;99404.50;5226720;28;20053;-71
2022/10/25 10:00:41;;;;;;;2.78;1.42;;;;;;;22.12;51.40;99409.88;5223816;28;20132;-71
2022/10/25 10:03:34;;;;;;;4.10;2.03;;;;;;;22.44;50.72;99416.34;5237941;28;20071;-71
2022/10/25 10:06:35;;;;;;;2.50;1.30;;;;;;;22.49;51.11;99409.25;5229807;28;20498;-71
2022/10/25 10:09:28;;;;;;;9.02;1.60;;;;;;;22.09;52.79;99413.03;5246056;28;20137;-71
2022/10/25 10:12:35;;;;;;;6.90;1.55;;;;;;;21.57;52.46;99410.91;5217652;28;20189;-71
2022/10/25 10:15:30;;;;;;;5.43;1.63;;;;;;;21.11;54.71;99406.19;5230328;28;20094;-71
2022/10/25 10:18:29;;;;;;;5.70;1.70;;;;;;;20.93;54.08;99411.31;5222995;28;20059;-71
2022/10/25 10:21:21;;;;;;;8.82;1.42;;;;;;;20.36;55.30;99409.69;5223265;28;20056;-71
2022/10/25 10:24:19;;;;;;;4.95;1.55;;;;;;;19.58;57.06;99414.19;5208073;28;20503;-71
2022/10/25 10:27:23;;;;;;;4.97;1.67;;;;;;;19.48;57.91;99411.81;5242037;28;20411;-71
2022/10/25 10:30:23;;;;;;;7.38;1.65;;;;;;;19.60;57.87;99423.75;5243715;28;20055;-71
2022/10/25 10:33:16;;;;;;;10.68;1.70;;;;;;;19.46;59.24;99421.91;5243440;28;20052;-71
2022/10/25 10:36:27;;;;;;;8.93;2.00;;;;;;;19.29;58.39;99412.44;5244427;28;20103;-72
2022/10/25 10:39:22;;;;;;;6.03;1.60;;;;;;;19.15;59.75;99388.09;5243241;28;20065;-72
2022/10/25 10:42:18;;;;;;;3.80;2.13;;;;;;;19.28;59.97;99413.47;5242939;28;20055;-73
2022/10/25 10:45:07;;;;;;;8.25;1.77;;;;;;;19.24;59.31;99407.63;5244179;28;20178;-73
2022/10/25 10:47:58;;;;;;;11.90;1.70;;;;;;;19.48;59.00;99393.00;5243286;28;20125;-73
2022/10/25 10:50:50;;;;;;;8.98;2.08;;;;;;;19.28;60.50;99391.97;5243358;28;20509;-73
2022/10/25 10:53:40;;;;;;;7.18;1.65;;;;;;;19.16;60.56;99394.28;5245064;28;20098;-73
2022/10/25 10:56:32;;;;;;;5.68;1.67;;;;;;;19.09;61.30;99394.22;5228662;28;20040;-72
2022/10/25 10:59:27;;;;;;;4.28;1.48;;;;;;;19.02;60.55;99383.38;5232118;28;20362;-72
2022/10/25 11:02:35;;;;;;;7.55;2.00;;;;;;;19.29;59.86;99382.84;5247385;28;20059;-72
2022/10/25 11:05:27;;;;;;;8.93;1.83;;;;;;;19.42;58.47;99386.50;5226712;28;20151;-72
2022/10/25 11:08:19;;;;;;;6.82;1.45;;;;;;;19.61;57.67;99381.53;5216368;28;20055;-73
2022/10/25 11:11:15;;;;;;;6.00;1.90;;;;;;;19.39;58.12;99380.69;5239497;28;20120;-72
2022/10/25 11:14:14;;;;;;;6.90;1.65;;;;;;;19.63;58.21;99374.94;5232335;28;20055;-73
2022/10/25 11:17:38;;;;;;;8.18;1.67;;;;;;;20.04;58.26;99370.75;5243524;28;20352;-73
2022/10/25 11:21:00;;;;;;;5.40;2.17;;;;;;;20.29;54.34;99365.72;5215807;28;20070;-73
2022/10/25 11:24:13;;;;;;;6.50;1.35;;;;;;;20.47;55.76;99368.75;5231741;28;20052;-71
2022/10/25 11:27:29;;;;;;;10.95;1.60;;;;;;;20.35;55.96;99375.72;5226596;28;20466;-71
2022/10/25 11:30:30;;;;;;;5.60;1.48;;;;;;;20.30;56.57;99376.31;5245688;28;20040;-71
2022/10/25 11:33:42;;;;;;;4.20;1.17;;;;;;;20.36;55.46;99358.50;5248402;28;20106;-71
2022/10/25 11:36:41;;;;;;;5.75;1.00;;;;;;;20.56;58.45;99367.59;5232309;28;20414;-71
2022/10/25 11:39:45;;;;;;;4.90;1.30;;;;;;;20.29;53.76;99363.84;5247301;28;20049;-73
2022/10/25 11:43:21;;;;;;;4.43;1.00;;;;;;;20.59;55.27;99374.44;5228718;28;20047;-72
2022/10/25 11:46:15;;;;;;;5.40;1.40;;;;;;;20.46;55.84;99364.38;5241351;28;20041;-71
2022/10/25 11:49:23;;;;;;;5.18;0.98;;;;;;;19.91;54.79;99366.91;5240287;28;20059;-71
2022/10/25 11:52:36;;;;;;;2.65;0.70;;;;;;;19.94;53.48;99360.31;5226037;28;20138;-71
2022/10/25 11:55:49;;;;;;;6.70;1.33;;;;;;;19.88;52.65;99374.56;5225831;28;20413;-72
2022/10/25 11:58:57;;;;;;;4.68;0.88;;;;;;;20.43;53.75;99370.19;5245689;28;20048;-71
2022/10/25 12:01:57;;;;;;;5.03;1.08;;;;;;;20.68;53.72;99373.22;5245713;28;20114;-72
2022/10/25 12:05:15;;;;;;;3.97;1.25;;;;;;;20.55;54.36;99375.84;5228796;28;20205;-71
2022/10/25 12:08:10;;;;;;;5.38;1.13;;;;;;;20.53;54.87;99373.38;5241555;28;20054;-71
2022/10/25 12:11:09;;;;;;;7.53;1.00;;;;;;;20.16;55.13;99377.22;5245881;28;20504;-71
2022/10/25 12:14:09;;;;;;;8.17;1.10;;;;;;;19.70;56.02;99375.00;5246292;28;20051;-71
2022/10/25 12:17:01;;;;;;;5.18;1.02;;;;;;;20.03;55.87;99369.88;5245825;28;20426;-71
2022/10/25 12:19:55;;;;;;;5.95;1.30;;;;;;;19.88;53.17;99344.94;5245980;28;20079;-71
2022/10/25 12:22:49;;;;;;;6.37;0.93;;;;;;;19.98;53.47;99355.38;5245808;28;20170;-71
2022/10/25 12:25:46;;;;;;;4.80;1.05;;;;;;;20.30;54.13;99359.34;5230673;28;20067;-71
2022/10/25 12:28:43;;;;;;;11.05;1.23;;;;;;;19.70;53.93;99365.09;5245169;28;20056;-70
2022/10/25 12:31:45;;;;;;;6.38;0.82;;;;;;;19.66;55.24;99355.72;5245390;28;20059;-71
2022/10/25 12:34:41;;;;;;;4.70;0.93;;;;;;;20.05;53.98;99359.78;5245722;28;20135;-71
2022/10/25 12:37:36;;;;;;;7.22;1.27;;;;;;;20.17;52.33;99352.00;5245643;28;20055;-71
2022/10/25 12:40:27;;;;;;;4.82;0.90;;;;;;;20.15;54.98;99352.19;5245426;28;20418;-71
2022/10/25 12:43:30;;;;;;;5.22;0.90;;;;;;;20.20;53.45;99343.53;5229700;28;20059;-71
2022/10/25 12:46:34;;;;;;;7.38;1.17;;;;;;;20.24;53.68;99349.34;5230228;28;20048;-71
2022/10/25 12:49:49;;;;;;;7.00;1.00;;;;;;;19.99;55.01;99340.88;5245739;28;20135;-70
2022/10/25 12:52:49;;;;;;;;;;;;;;;20.33;54.51;99348.13;5231824;28;20518;-71
2022/10/25 12:56:06;;;;;;;3.30;0.90;;;;;;;20.10;54.98;99329.59;5246289;28;20298;-71
2022/10/25 12:59:24;;;;;;;6.65;0.90;;;;;;;20.25;54.90;99340.22;5245199;28;20055;-71
2022/10/25 13:02:42;;;;;;;5.78;0.95;;;;;;;19.85;54.20;99337.25;5220804;28;20059;-71
2022/10/25 13:05:43;;;;;;;4.22;0.90;;;;;;;19.93;54.18;99329.88;5224348;28;20068;-70
2022/10/25 13:08:34;;;;;;;4.70;1.30;;;;;;;19.92;54.66;99320.13;5214670;28;20060;-70
2022/10/25 13:11:40;;;;;;;5.57;1.00;;;;;;;19.94;54.63;99333.41;5209898;28;20076;-71
2022/10/25 13:14:31;;;;;;;7.38;1.20;;;;;;;20.00;53.77;99338.00;5225668;28;20151;-71
2022/10/25 13:17:22;;;;;;;7.07;1.58;;;;;;;19.96;53.43;99334.03;5224374;28;20155;-70
2022/10/25 13:20:18;;;;;;;3.75;1.10;;;;;;;20.25;55.46;99340.22;5224513;28;20049;-71
2022/10/25 13:23:41;;;;;;;6.88;1.30;;;;;;;20.13;54.03;99332.72;5226196;28;20075;-71
2022/10/25 13:26:52;;;;;;;6.60;1.23;;;;;;;19.15;56.60;99328.13;5223613;28;20067;-73
2022/10/25 13:30:03;;;;;;;2.88;1.05;;;;;;;19.69;55.96;99328.44;5208396;28;20254;-71
2022/10/25 13:33:21;;;;;;;8.13;1.13;;;;;;;19.87;55.10;99316.38;5223415;28;20057;-71
2022/10/25 13:36:11;;;;;;;4.20;1.00;;;;;;;19.70;56.20;99316.69;5223264;28;20056;-71
2022/10/25 13:39:04;;;;;;;5.00;1.08;;;;;;;19.46;56.86;99288.28;5223302;28;20056;-71
2022/10/25 13:42:01;;;;;;;7.28;1.15;;;;;;;19.93;56.55;99320.97;5223057;28;20141;-71
2022/10/25 13:44:55;;;;;;;3.20;0.80;;;;;;;19.92;56.74;99330.06;5223465;28;20155;-71
2022/10/25 13:47:48;;;;;;;5.93;1.23;;;;;;;19.86;56.80;99314.69;5208380;28;20057;-71
2022/10/25 13:50:48;;;;;;;4.28;0.73;;;;;;;19.85;54.85;99316.56;5208677;28;20045;-72